sensor_id;sensor_type;location;lat;lon;timestamp;P1;durP1;ratioP1;P2;durP2;ratioP2
71963;SDS011;59834;52.124;5.422;2023-09-18T00:02:20;12.52;;;9.82;;
71963;SDS011;59834;52.124;5.422;2023-09-18T00:04:46;13.15;;;9.57;;
71963;SDS011;59834;52.124;5.422;2023-09-18T00:07:14;11.20;;;9.38;;
71963;SDS011;59834;52.124;5.422;2023-09-18T00:09:41;11.80;;;8.27;;
71963;SDS011;59834;52.124;5.422;2023-09-18T00:12:07;11.53;;;10.17;;
71963;SDS011;59834;52.124;5.422;2023-09-18T00:14:36;12.93;;;9.60;;
71963;SDS011;59834;52.124;5.422;2023-09-18T00:17:04;14.07;;;9.85;;
71963;SDS011;59834;52.124;5.422;2023-09-18T00:19:31;12.52;;;9.57;;
71963;SDS011;59834;52.124;5.422;2023-09-18T00:21:59;17.60;;;9.98;;
71963;SDS011;59834;52.124;5.422;2023-09-18T00:24:27;19.90;;;10.73;;
71963;SDS011;59834;52.124;5.422;2023-09-18T00:26:54;14.25;;;10.57;;
71963;SDS011;59834;52.124;5.422;2023-09-18T00:38:00;10.27;;;9.17;;
71963;SDS011;59834;52.124;5.422;2023-09-18T00:40:31;13.95;;;10.07;;
71963;SDS011;59834;52.124;5.422;2023-09-18T00:42:57;21.85;;;10.52;;
71963;SDS011;59834;52.124;5.422;2023-09-18T00:45:24;10.15;;;8.98;;
71963;SDS011;59834;52.124;5.422;2023-09-18T00:47:51;11.90;;;9.70;;
71963;SDS011;59834;52.124;5.422;2023-09-18T00:50:18;18.87;;;9.90;;
71963;SDS011;59834;52.124;5.422;2023-09-18T00:52:45;12.65;;;9.25;;
71963;SDS011;59834;52.124;5.422;2023-09-18T00:55:11;11.45;;;9.48;;
71963;SDS011;59834;52.124;5.422;2023-09-18T00:57:38;11.15;;;9.60;;
71963;SDS011;59834;52.124;5.422;2023-09-18T01:00:06;13.13;;;9.88;;
71963;SDS011;59834;52.124;5.422;2023-09-18T01:02:33;13.83;;;9.13;;
71963;SDS011;59834;52.124;5.422;2023-09-18T01:05:00;12.25;;;9.95;;
71963;SDS011;59834;52.124;5.422;2023-09-18T01:07:27;12.27;;;10.40;;
71963;SDS011;59834;52.124;5.422;2023-09-18T01:09:55;30.02;;;10.75;;
71963;SDS011;59834;52.124;5.422;2023-09-18T01:17:43;14.10;;;9.85;;
71963;SDS011;59834;52.124;5.422;2023-09-18T01:20:12;14.75;;;10.13;;
71963;SDS011;59834;52.124;5.422;2023-09-18T01:22:39;11.57;;;10.20;;
71963;SDS011;59834;52.124;5.422;2023-09-18T01:25:06;15.65;;;10.48;;
71963;SDS011;59834;52.124;5.422;2023-09-18T01:27:33;12.83;;;10.27;;
71963;SDS011;59834;52.124;5.422;2023-09-18T01:30:00;11.07;;;9.98;;
71963;SDS011;59834;52.124;5.422;2023-09-18T01:32:27;12.32;;;9.77;;
71963;SDS011;59834;52.124;5.422;2023-09-18T01:34:57;12.85;;;9.90;;
71963;SDS011;59834;52.124;5.422;2023-09-18T01:37:27;12.60;;;9.02;;
71963;SDS011;59834;52.124;5.422;2023-09-18T01:39:56;16.83;;;10.80;;
71963;SDS011;59834;52.124;5.422;2023-09-18T01:42:29;15.77;;;10.10;;
71963;SDS011;59834;52.124;5.422;2023-09-18T01:44:55;11.13;;;9.98;;
71963;SDS011;59834;52.124;5.422;2023-09-18T01:47:22;12.55;;;10.50;;
71963;SDS011;59834;52.124;5.422;2023-09-18T01:49:53;18.92;;;10.05;;
71963;SDS011;59834;52.124;5.422;2023-09-18T01:52:20;17.33;;;10.37;;
71963;SDS011;59834;52.124;5.422;2023-09-18T01:54:46;14.60;;;10.48;;
71963;SDS011;59834;52.124;5.422;2023-09-18T01:57:13;12.05;;;10.50;;
71963;SDS011;59834;52.124;5.422;2023-09-18T01:59:40;12.40;;;10.20;;
71963;SDS011;59834;52.124;5.422;2023-09-18T02:02:08;17.65;;;10.93;;
71963;SDS011;59834;52.124;5.422;2023-09-18T02:04:41;13.70;;;10.30;;
71963;SDS011;59834;52.124;5.422;2023-09-18T02:07:28;12.35;;;10.05;;
71963;SDS011;59834;52.124;5.422;2023-09-18T02:09:55;16.13;;;10.80;;
71963;SDS011;59834;52.124;5.422;2023-09-18T02:12:22;18.70;;;11.07;;
71963;SDS011;59834;52.124;5.422;2023-09-18T02:14:48;18.35;;;11.00;;
71963;SDS011;59834;52.124;5.422;2023-09-18T02:17:17;13.13;;;10.37;;
71963;SDS011;59834;52.124;5.422;2023-09-18T02:19:45;14.75;;;11.13;;
71963;SDS011;59834;52.124;5.422;2023-09-18T02:22:12;14.00;;;11.35;;
71963;SDS011;59834;52.124;5.422;2023-09-18T02:24:39;20.58;;;10.70;;
71963;SDS011;59834;52.124;5.422;2023-09-18T02:27:06;15.05;;;10.23;;
71963;SDS011;59834;52.124;5.422;2023-09-18T02:29:33;16.10;;;11.00;;
71963;SDS011;59834;52.124;5.422;2023-09-18T02:31:59;12.52;;;10.50;;
71963;SDS011;59834;52.124;5.422;2023-09-18T02:34:26;11.73;;;10.52;;
71963;SDS011;59834;52.124;5.422;2023-09-18T02:36:54;14.57;;;10.50;;
71963;SDS011;59834;52.124;5.422;2023-09-18T02:39:21;12.55;;;10.15;;
71963;SDS011;59834;52.124;5.422;2023-09-18T02:41:47;14.93;;;10.80;;
71963;SDS011;59834;52.124;5.422;2023-09-18T02:44:16;13.55;;;10.52;;
71963;SDS011;59834;52.124;5.422;2023-09-18T02:46:42;13.80;;;10.93;;
71963;SDS011;59834;52.124;5.422;2023-09-18T02:49:13;17.15;;;10.38;;
71963;SDS011;59834;52.124;5.422;2023-09-18T02:51:39;16.55;;;10.60;;
71963;SDS011;59834;52.124;5.422;2023-09-18T02:54:06;14.97;;;10.50;;
71963;SDS011;59834;52.124;5.422;2023-09-18T02:56:33;17.40;;;11.27;;
71963;SDS011;59834;52.124;5.422;2023-09-18T02:59:00;13.77;;;10.93;;
71963;SDS011;59834;52.124;5.422;2023-09-18T03:01:27;20.40;;;11.13;;
71963;SDS011;59834;52.124;5.422;2023-09-18T03:03:53;16.98;;;11.07;;
71963;SDS011;59834;52.124;5.422;2023-09-18T03:06:21;15.47;;;10.63;;
71963;SDS011;59834;52.124;5.422;2023-09-18T03:08:47;14.30;;;11.43;;
71963;SDS011;59834;52.124;5.422;2023-09-18T03:11:14;15.98;;;11.30;;
71963;SDS011;59834;52.124;5.422;2023-09-18T03:13:42;15.02;;;10.38;;
71963;SDS011;59834;52.124;5.422;2023-09-18T03:16:11;18.08;;;11.10;;
71963;SDS011;59834;52.124;5.422;2023-09-18T03:18:38;13.40;;;11.30;;
71963;SDS011;59834;52.124;5.422;2023-09-18T03:21:05;14.55;;;11.60;;
71963;SDS011;59834;52.124;5.422;2023-09-18T03:23:32;14.23;;;11.55;;
71963;SDS011;59834;52.124;5.422;2023-09-18T03:25:59;15.18;;;11.48;;
71963;SDS011;59834;52.124;5.422;2023-09-18T03:28:26;14.90;;;11.38;;
71963;SDS011;59834;52.124;5.422;2023-09-18T03:30:52;17.33;;;12.27;;
71963;SDS011;59834;52.124;5.422;2023-09-18T03:33:19;14.00;;;10.27;;
71963;SDS011;59834;52.124;5.422;2023-09-18T03:35:49;15.80;;;11.52;;
71963;SDS011;59834;52.124;5.422;2023-09-18T03:38:17;18.50;;;12.05;;
71963;SDS011;59834;52.124;5.422;2023-09-18T03:40:45;14.05;;;11.75;;
71963;SDS011;59834;52.124;5.422;2023-09-18T03:43:12;15.93;;;11.40;;
71963;SDS011;59834;52.124;5.422;2023-09-18T03:45:39;15.95;;;12.52;;
71963;SDS011;59834;52.124;5.422;2023-09-18T03:48:09;19.95;;;12.70;;
71963;SDS011;59834;52.124;5.422;2023-09-18T03:50:36;21.45;;;12.95;;
71963;SDS011;59834;52.124;5.422;2023-09-18T03:53:04;19.20;;;11.90;;
71963;SDS011;59834;52.124;5.422;2023-09-18T03:55:30;16.87;;;13.13;;
71963;SDS011;59834;52.124;5.422;2023-09-18T03:57:57;27.92;;;12.88;;
71963;SDS011;59834;52.124;5.422;2023-09-18T04:03:16;13.50;;;11.15;;
71963;SDS011;59834;52.124;5.422;2023-09-18T04:05:42;19.02;;;12.65;;
71963;SDS011;59834;52.124;5.422;2023-09-18T04:08:10;15.70;;;11.90;;
71963;SDS011;59834;52.124;5.422;2023-09-18T04:10:37;14.98;;;12.13;;
71963;SDS011;59834;52.124;5.422;2023-09-18T04:13:04;18.20;;;10.98;;
71963;SDS011;59834;52.124;5.422;2023-09-18T04:15:30;16.48;;;11.32;;
71963;SDS011;59834;52.124;5.422;2023-09-18T04:17:57;23.60;;;12.63;;
71963;SDS011;59834;52.124;5.422;2023-09-18T04:20:24;17.73;;;12.13;;
71963;SDS011;59834;52.124;5.422;2023-09-18T04:23:16;17.83;;;10.05;;
71963;SDS011;59834;52.124;5.422;2023-09-18T04:25:49;13.70;;;10.20;;
71963;SDS011;59834;52.124;5.422;2023-09-18T04:28:17;16.27;;;9.98;;
71963;SDS011;59834;52.124;5.422;2023-09-18T04:30:46;19.08;;;10.27;;
71963;SDS011;59834;52.124;5.422;2023-09-18T04:33:13;13.97;;;9.97;;
71963;SDS011;59834;52.124;5.422;2023-09-18T04:35:41;18.10;;;9.70;;
71963;SDS011;59834;52.124;5.422;2023-09-18T04:38:08;11.98;;;9.48;;
71963;SDS011;59834;52.124;5.422;2023-09-18T04:40:37;15.20;;;9.85;;
71963;SDS011;59834;52.124;5.422;2023-09-18T04:43:07;12.05;;;9.35;;
71963;SDS011;59834;52.124;5.422;2023-09-18T04:45:33;11.80;;;9.20;;
71963;SDS011;59834;52.124;5.422;2023-09-18T04:48:00;15.13;;;9.27;;
71963;SDS011;59834;52.124;5.422;2023-09-18T04:50:27;16.27;;;10.63;;
71963;SDS011;59834;52.124;5.422;2023-09-18T04:52:53;15.55;;;9.27;;
71963;SDS011;59834;52.124;5.422;2023-09-18T04:55:22;13.90;;;9.10;;
71963;SDS011;59834;52.124;5.422;2023-09-18T04:57:49;12.13;;;9.27;;
71963;SDS011;59834;52.124;5.422;2023-09-18T05:00:15;20.65;;;11.63;;
71963;SDS011;59834;52.124;5.422;2023-09-18T05:02:43;13.77;;;8.75;;
71963;SDS011;59834;52.124;5.422;2023-09-18T05:05:11;16.38;;;10.10;;
71963;SDS011;59834;52.124;5.422;2023-09-18T05:07:38;15.23;;;9.63;;
71963;SDS011;59834;52.124;5.422;2023-09-18T05:10:05;12.20;;;7.87;;
71963;SDS011;59834;52.124;5.422;2023-09-18T05:12:32;9.27;;;6.70;;
71963;SDS011;59834;52.124;5.422;2023-09-18T05:14:59;9.85;;;5.28;;
71963;SDS011;59834;52.124;5.422;2023-09-18T05:17:45;7.68;;;4.22;;
71963;SDS011;59834;52.124;5.422;2023-09-18T05:20:15;6.15;;;3.97;;
71963;SDS011;59834;52.124;5.422;2023-09-18T05:22:44;6.13;;;4.20;;
71963;SDS011;59834;52.124;5.422;2023-09-18T05:25:12;7.95;;;4.10;;
71963;SDS011;59834;52.124;5.422;2023-09-18T05:27:40;5.03;;;3.97;;
71963;SDS011;59834;52.124;5.422;2023-09-18T05:30:14;5.80;;;3.63;;
71963;SDS011;59834;52.124;5.422;2023-09-18T05:32:42;6.82;;;3.20;;
71963;SDS011;59834;52.124;5.422;2023-09-18T05:35:11;9.43;;;3.50;;
71963;SDS011;59834;52.124;5.422;2023-09-18T05:37:40;5.75;;;3.70;;
71963;SDS011;59834;52.124;5.422;2023-09-18T05:40:08;7.15;;;3.78;;
71963;SDS011;59834;52.124;5.422;2023-09-18T05:42:37;5.15;;;3.38;;
71963;SDS011;59834;52.124;5.422;2023-09-18T05:45:05;6.38;;;4.50;;
71963;SDS011;59834;52.124;5.422;2023-09-18T05:47:32;8.70;;;3.93;;
71963;SDS011;59834;52.124;5.422;2023-09-18T05:49:59;8.82;;;3.78;;
71963;SDS011;59834;52.124;5.422;2023-09-18T05:52:26;8.13;;;4.80;;
71963;SDS011;59834;52.124;5.422;2023-09-18T05:54:53;6.50;;;4.47;;
71963;SDS011;59834;52.124;5.422;2023-09-18T05:57:20;5.97;;;4.43;;
71963;SDS011;59834;52.124;5.422;2023-09-18T05:59:47;5.97;;;4.17;;
71963;SDS011;59834;52.124;5.422;2023-09-18T06:02:14;6.32;;;4.50;;
71963;SDS011;59834;52.124;5.422;2023-09-18T06:04:42;7.75;;;4.80;;
71963;SDS011;59834;52.124;5.422;2023-09-18T06:07:09;7.47;;;4.55;;
71963;SDS011;59834;52.124;5.422;2023-09-18T06:12:29;6.50;;;4.60;;
71963;SDS011;59834;52.124;5.422;2023-09-18T06:14:56;5.15;;;4.40;;
71963;SDS011;59834;52.124;5.422;2023-09-18T06:17:23;6.30;;;5.20;;
71963;SDS011;59834;52.124;5.422;2023-09-18T06:19:50;7.88;;;5.00;;
71963;SDS011;59834;52.124;5.422;2023-09-18T06:22:18;5.68;;;5.10;;
71963;SDS011;59834;52.124;5.422;2023-09-18T06:24:45;8.77;;;5.23;;
71963;SDS011;59834;52.124;5.422;2023-09-18T06:27:12;7.25;;;4.78;;
71963;SDS011;59834;52.124;5.422;2023-09-18T06:29:38;6.43;;;5.43;;
71963;SDS011;59834;52.124;5.422;2023-09-18T06:45:56;6.65;;;4.93;;
71963;SDS011;59834;52.124;5.422;2023-09-18T07:00:41;9.75;;;5.10;;
71963;SDS011;59834;52.124;5.422;2023-09-18T07:14:27;9.40;;;6.20;;
71963;SDS011;59834;52.124;5.422;2023-09-18T07:16:54;8.73;;;6.07;;
71963;SDS011;59834;52.124;5.422;2023-09-18T07:19:20;10.63;;;6.50;;
71963;SDS011;59834;52.124;5.422;2023-09-18T07:21:47;14.00;;;6.90;;
71963;SDS011;59834;52.124;5.422;2023-09-18T07:27:08;7.10;;;6.13;;
71963;SDS011;59834;52.124;5.422;2023-09-18T07:29:35;8.30;;;6.05;;
71963;SDS011;59834;52.124;5.422;2023-09-18T07:32:01;10.77;;;6.07;;
71963;SDS011;59834;52.124;5.422;2023-09-18T07:34:29;10.32;;;6.05;;
71963;SDS011;59834;52.124;5.422;2023-09-18T07:36:55;9.25;;;6.00;;
71963;SDS011;59834;52.124;5.422;2023-09-18T07:39:22;9.63;;;5.93;;
71963;SDS011;59834;52.124;5.422;2023-09-18T07:41:49;7.88;;;5.53;;
71963;SDS011;59834;52.124;5.422;2023-09-18T07:44:19;8.27;;;5.72;;
71963;SDS011;59834;52.124;5.422;2023-09-18T07:46:47;7.05;;;5.38;;
71963;SDS011;59834;52.124;5.422;2023-09-18T07:49:14;7.05;;;5.20;;
71963;SDS011;59834;52.124;5.422;2023-09-18T07:51:40;5.50;;;5.00;;
71963;SDS011;59834;52.124;5.422;2023-09-18T07:54:07;6.63;;;5.20;;
71963;SDS011;59834;52.124;5.422;2023-09-18T07:56:34;6.05;;;5.07;;
71963;SDS011;59834;52.124;5.422;2023-09-18T07:59:02;6.45;;;4.72;;
71963;SDS011;59834;52.124;5.422;2023-09-18T08:01:31;7.43;;;4.60;;
71963;SDS011;59834;52.124;5.422;2023-09-18T08:03:58;6.47;;;4.13;;
71963;SDS011;59834;52.124;5.422;2023-09-18T08:06:27;6.72;;;4.57;;
71963;SDS011;59834;52.124;5.422;2023-09-18T08:08:55;6.70;;;3.85;;
71963;SDS011;59834;52.124;5.422;2023-09-18T08:11:22;3.90;;;3.00;;
71963;SDS011;59834;52.124;5.422;2023-09-18T08:13:49;8.15;;;3.17;;
71963;SDS011;59834;52.124;5.422;2023-09-18T08:16:15;4.43;;;2.63;;
71963;SDS011;59834;52.124;5.422;2023-09-18T08:18:43;4.57;;;3.13;;
71963;SDS011;59834;52.124;5.422;2023-09-18T08:21:10;12.38;;;3.25;;
71963;SDS011;59834;52.124;5.422;2023-09-18T08:23:40;5.10;;;2.55;;
71963;SDS011;59834;52.124;5.422;2023-09-18T08:26:06;5.40;;;2.45;;
71963;SDS011;59834;52.124;5.422;2023-09-18T08:28:33;5.03;;;2.93;;
71963;SDS011;59834;52.124;5.422;2023-09-18T08:31:04;17.70;;;3.28;;
71963;SDS011;59834;52.124;5.422;2023-09-18T08:33:30;4.68;;;2.83;;
71963;SDS011;59834;52.124;5.422;2023-09-18T08:35:57;3.70;;;2.75;;
71963;SDS011;59834;52.124;5.422;2023-09-18T08:38:24;9.32;;;2.88;;
71963;SDS011;59834;52.124;5.422;2023-09-18T08:40:55;3.40;;;2.60;;
71963;SDS011;59834;52.124;5.422;2023-09-18T08:43:22;5.60;;;2.83;;
71963;SDS011;59834;52.124;5.422;2023-09-18T08:45:54;9.25;;;3.63;;
71963;SDS011;59834;52.124;5.422;2023-09-18T08:48:22;5.43;;;2.55;;
71963;SDS011;59834;52.124;5.422;2023-09-18T08:50:49;2.88;;;2.00;;
71963;SDS011;59834;52.124;5.422;2023-09-18T08:53:17;5.10;;;2.57;;
71963;SDS011;59834;52.124;5.422;2023-09-18T08:55:44;4.38;;;2.28;;
71963;SDS011;59834;52.124;5.422;2023-09-18T08:58:11;7.57;;;1.98;;
71963;SDS011;59834;52.124;5.422;2023-09-18T09:00:38;3.53;;;1.75;;
71963;SDS011;59834;52.124;5.422;2023-09-18T09:03:05;4.50;;;2.00;;
71963;SDS011;59834;52.124;5.422;2023-09-18T09:05:32;2.20;;;1.57;;
71963;SDS011;59834;52.124;5.422;2023-09-18T09:07:59;2.53;;;2.13;;
71963;SDS011;59834;52.124;5.422;2023-09-18T09:10:26;4.15;;;2.78;;
71963;SDS011;59834;52.124;5.422;2023-09-18T09:13:00;2.75;;;2.03;;
71963;SDS011;59834;52.124;5.422;2023-09-18T09:15:28;7.95;;;2.08;;
71963;SDS011;59834;52.124;5.422;2023-09-18T09:18:05;2.07;;;1.40;;
71963;SDS011;59834;52.124;5.422;2023-09-18T09:20:34;3.38;;;1.90;;
71963;SDS011;59834;52.124;5.422;2023-09-18T09:23:04;3.80;;;1.90;;
71963;SDS011;59834;52.124;5.422;2023-09-18T09:25:35;2.72;;;1.63;;
71963;SDS011;59834;52.124;5.422;2023-09-18T09:28:04;3.50;;;1.60;;
71963;SDS011;59834;52.124;5.422;2023-09-18T09:30:32;3.37;;;1.97;;
71963;SDS011;59834;52.124;5.422;2023-09-18T09:33:00;3.33;;;1.40;;
71963;SDS011;59834;52.124;5.422;2023-09-18T09:35:33;2.78;;;1.40;;
71963;SDS011;59834;52.124;5.422;2023-09-18T09:38:12;2.17;;;1.17;;
71963;SDS011;59834;52.124;5.422;2023-09-18T09:40:43;5.15;;;1.50;;
71963;SDS011;59834;52.124;5.422;2023-09-18T09:43:10;3.37;;;1.80;;
71963;SDS011;59834;52.124;5.422;2023-09-18T09:45:41;3.17;;;1.77;;
71963;SDS011;59834;52.124;5.422;2023-09-18T09:48:12;8.02;;;1.70;;
71963;SDS011;59834;52.124;5.422;2023-09-18T09:50:46;2.70;;;1.50;;
71963;SDS011;59834;52.124;5.422;2023-09-18T09:53:14;2.85;;;2.08;;
71963;SDS011;59834;52.124;5.422;2023-09-18T09:55:45;3.33;;;2.03;;
71963;SDS011;59834;52.124;5.422;2023-09-18T09:58:20;5.03;;;2.20;;
71963;SDS011;59834;52.124;5.422;2023-09-18T10:00:58;3.85;;;2.10;;
71963;SDS011;59834;52.124;5.422;2023-09-18T10:03:29;3.72;;;2.05;;
71963;SDS011;59834;52.124;5.422;2023-09-18T10:05:59;3.47;;;2.53;;
71963;SDS011;59834;52.124;5.422;2023-09-18T10:08:28;4.93;;;2.10;;
71963;SDS011;59834;52.124;5.422;2023-09-18T10:11:05;5.63;;;2.10;;
71963;SDS011;59834;52.124;5.422;2023-09-18T10:13:43;4.07;;;2.30;;
71963;SDS011;59834;52.124;5.422;2023-09-18T10:16:13;4.47;;;2.10;;
71963;SDS011;59834;52.124;5.422;2023-09-18T10:18:55;4.03;;;1.92;;
71963;SDS011;59834;52.124;5.422;2023-09-18T10:21:53;2.40;;;1.93;;
71963;SDS011;59834;52.124;5.422;2023-09-18T10:24:35;3.97;;;2.10;;
71963;SDS011;59834;52.124;5.422;2023-09-18T10:27:04;2.22;;;2.05;;
71963;SDS011;59834;52.124;5.422;2023-09-18T10:29:33;2.58;;;2.25;;
71963;SDS011;59834;52.124;5.422;2023-09-18T10:32:04;3.92;;;2.58;;
71963;SDS011;59834;52.124;5.422;2023-09-18T10:34:35;3.60;;;2.60;;
71963;SDS011;59834;52.124;5.422;2023-09-18T10:37:03;6.68;;;3.20;;
71963;SDS011;59834;52.124;5.422;2023-09-18T10:39:37;6.97;;;2.60;;
71963;SDS011;59834;52.124;5.422;2023-09-18T10:42:07;6.05;;;3.72;;
71963;SDS011;59834;52.124;5.422;2023-09-18T10:44:34;6.35;;;3.33;;
71963;SDS011;59834;52.124;5.422;2023-09-18T10:47:02;4.53;;;3.57;;
71963;SDS011;59834;52.124;5.422;2023-09-18T10:49:34;5.20;;;4.50;;
71963;SDS011;59834;52.124;5.422;2023-09-18T10:52:01;11.98;;;3.75;;
71963;SDS011;59834;52.124;5.422;2023-09-18T10:54:30;3.97;;;3.05;;
71963;SDS011;59834;52.124;5.422;2023-09-18T10:56:58;4.10;;;3.15;;
71963;SDS011;59834;52.124;5.422;2023-09-18T10:59:25;6.93;;;3.80;;
71963;SDS011;59834;52.124;5.422;2023-09-18T11:01:54;5.65;;;3.40;;
71963;SDS011;59834;52.124;5.422;2023-09-18T11:04:22;5.00;;;3.42;;
71963;SDS011;59834;52.124;5.422;2023-09-18T11:09:20;5.85;;;3.05;;
71963;SDS011;59834;52.124;5.422;2023-09-18T11:14:45;4.40;;;3.08;;
71963;SDS011;59834;52.124;5.422;2023-09-18T11:22:48;3.55;;;2.60;;
71963;SDS011;59834;52.124;5.422;2023-09-18T11:25:33;5.27;;;2.73;;
71963;SDS011;59834;52.124;5.422;2023-09-18T11:28:05;7.63;;;2.33;;
71963;SDS011;59834;52.124;5.422;2023-09-18T11:30:35;5.00;;;2.85;;
71963;SDS011;59834;52.124;5.422;2023-09-18T11:33:03;4.78;;;1.88;;
71963;SDS011;59834;52.124;5.422;2023-09-18T11:35:32;3.10;;;2.00;;
71963;SDS011;59834;52.124;5.422;2023-09-18T11:38:06;5.07;;;2.70;;
71963;SDS011;59834;52.124;5.422;2023-09-18T11:40:38;5.43;;;2.45;;
71963;SDS011;59834;52.124;5.422;2023-09-18T11:43:28;11.10;;;2.50;;
71963;SDS011;59834;52.124;5.422;2023-09-18T11:45:59;4.88;;;2.13;;
71963;SDS011;59834;52.124;5.422;2023-09-18T11:48:28;6.68;;;2.42;;
71963;SDS011;59834;52.124;5.422;2023-09-18T11:50:57;7.50;;;3.20;;
71963;SDS011;59834;52.124;5.422;2023-09-18T11:53:28;5.47;;;3.45;;
71963;SDS011;59834;52.124;5.422;2023-09-18T11:56:00;5.63;;;4.13;;
71963;SDS011;59834;52.124;5.422;2023-09-18T11:58:29;6.90;;;3.90;;
71963;SDS011;59834;52.124;5.422;2023-09-18T12:00:56;10.65;;;3.15;;
71963;SDS011;59834;52.124;5.422;2023-09-18T12:03:36;5.03;;;3.10;;
71963;SDS011;59834;52.124;5.422;2023-09-18T12:06:03;4.15;;;3.00;;
71963;SDS011;59834;52.124;5.422;2023-09-18T12:08:39;2.83;;;2.63;;
71963;SDS011;59834;52.124;5.422;2023-09-18T12:11:07;4.05;;;2.58;;
71963;SDS011;59834;52.124;5.422;2023-09-18T12:13:34;5.40;;;2.60;;
71963;SDS011;59834;52.124;5.422;2023-09-18T12:16:01;3.33;;;2.43;;
71963;SDS011;59834;52.124;5.422;2023-09-18T12:18:32;7.20;;;2.65;;
71963;SDS011;59834;52.124;5.422;2023-09-18T12:21:02;5.78;;;2.40;;
71963;SDS011;59834;52.124;5.422;2023-09-18T12:23:37;5.00;;;1.95;;
71963;SDS011;59834;52.124;5.422;2023-09-18T12:26:06;4.40;;;2.00;;
71963;SDS011;59834;52.124;5.422;2023-09-18T12:28:36;4.97;;;2.33;;
71963;SDS011;59834;52.124;5.422;2023-09-18T12:31:03;5.00;;;2.22;;
71963;SDS011;59834;52.124;5.422;2023-09-18T12:33:34;3.85;;;2.22;;
71963;SDS011;59834;52.124;5.422;2023-09-18T12:36:06;5.65;;;1.90;;
71963;SDS011;59834;52.124;5.422;2023-09-18T12:38:34;6.97;;;2.30;;
71963;SDS011;59834;52.124;5.422;2023-09-18T12:41:04;7.70;;;1.70;;
71963;SDS011;59834;52.124;5.422;2023-09-18T12:43:38;2.95;;;2.13;;
71963;SDS011;59834;52.124;5.422;2023-09-18T12:46:06;3.10;;;1.67;;
71963;SDS011;59834;52.124;5.422;2023-09-18T12:48:38;3.40;;;1.70;;
71963;SDS011;59834;52.124;5.422;2023-09-18T12:51:11;4.40;;;2.05;;
71963;SDS011;59834;52.124;5.422;2023-09-18T12:53:40;2.27;;;1.60;;
71963;SDS011;59834;52.124;5.422;2023-09-18T12:56:09;3.17;;;1.92;;
71963;SDS011;59834;52.124;5.422;2023-09-18T12:58:39;3.72;;;2.13;;
71963;SDS011;59834;52.124;5.422;2023-09-18T13:01:27;5.15;;;2.30;;
71963;SDS011;59834;52.124;5.422;2023-09-18T13:03:53;4.18;;;2.45;;
71963;SDS011;59834;52.124;5.422;2023-09-18T13:06:22;3.23;;;2.10;;
71963;SDS011;59834;52.124;5.422;2023-09-18T13:08:49;5.88;;;3.30;;
71963;SDS011;59834;52.124;5.422;2023-09-18T13:11:15;3.03;;;2.05;;
71963;SDS011;59834;52.124;5.422;2023-09-18T13:13:43;4.03;;;1.73;;
71963;SDS011;59834;52.124;5.422;2023-09-18T13:16:12;2.95;;;2.00;;
71963;SDS011;59834;52.124;5.422;2023-09-18T13:18:41;11.50;;;3.23;;
71963;SDS011;59834;52.124;5.422;2023-09-18T13:21:10;5.07;;;2.10;;
71963;SDS011;59834;52.124;5.422;2023-09-18T13:23:40;9.85;;;2.78;;
71963;SDS011;59834;52.124;5.422;2023-09-18T13:26:07;4.97;;;1.60;;
71963;SDS011;59834;52.124;5.422;2023-09-18T13:28:34;4.15;;;2.08;;
71963;SDS011;59834;52.124;5.422;2023-09-18T13:31:03;3.97;;;1.17;;
71963;SDS011;59834;52.124;5.422;2023-09-18T13:33:31;4.88;;;1.70;;
71963;SDS011;59834;52.124;5.422;2023-09-18T13:35:59;2.83;;;1.60;;
71963;SDS011;59834;52.124;5.422;2023-09-18T13:38:26;5.78;;;1.20;;
71963;SDS011;59834;52.124;5.422;2023-09-18T13:40:53;2.75;;;1.58;;
71963;SDS011;59834;52.124;5.422;2023-09-18T13:43:23;2.17;;;1.60;;
71963;SDS011;59834;52.124;5.422;2023-09-18T13:45:49;4.03;;;1.20;;
71963;SDS011;59834;52.124;5.422;2023-09-18T13:48:20;4.20;;;1.40;;
71963;SDS011;59834;52.124;5.422;2023-09-18T13:50:46;3.25;;;1.00;;
71963;SDS011;59834;52.124;5.422;2023-09-18T13:53:14;2.65;;;1.20;;
71963;SDS011;59834;52.124;5.422;2023-09-18T13:55:40;9.67;;;1.30;;
71963;SDS011;59834;52.124;5.422;2023-09-18T13:58:07;3.65;;;1.13;;
71963;SDS011;59834;52.124;5.422;2023-09-18T14:00:34;3.42;;;1.10;;
71963;SDS011;59834;52.124;5.422;2023-09-18T14:03:01;4.45;;;1.08;;
71963;SDS011;59834;52.124;5.422;2023-09-18T14:05:29;3.20;;;0.68;;
71963;SDS011;59834;52.124;5.422;2023-09-18T14:07:56;4.80;;;1.17;;
71963;SDS011;59834;52.124;5.422;2023-09-18T14:10:26;1.73;;;0.60;;
71963;SDS011;59834;52.124;5.422;2023-09-18T14:12:53;2.72;;;0.90;;
71963;SDS011;59834;52.124;5.422;2023-09-18T14:15:20;2.83;;;0.82;;
71963;SDS011;59834;52.124;5.422;2023-09-18T14:17:47;4.25;;;0.95;;
71963;SDS011;59834;52.124;5.422;2023-09-18T14:20:14;2.63;;;0.47;;
71963;SDS011;59834;52.124;5.422;2023-09-18T14:22:45;2.60;;;0.40;;
71963;SDS011;59834;52.124;5.422;2023-09-18T14:25:12;1.70;;;0.52;;
71963;SDS011;59834;52.124;5.422;2023-09-18T14:27:45;2.20;;;0.60;;
71963;SDS011;59834;52.124;5.422;2023-09-18T14:30:13;1.10;;;0.60;;
71963;SDS011;59834;52.124;5.422;2023-09-18T14:32:43;4.13;;;0.60;;
71963;SDS011;59834;52.124;5.422;2023-09-18T14:35:09;3.03;;;0.77;;
71963;SDS011;59834;52.124;5.422;2023-09-18T14:40:31;3.67;;;0.65;;
71963;SDS011;59834;52.124;5.422;2023-09-18T14:42:58;3.92;;;0.70;;
71963;SDS011;59834;52.124;5.422;2023-09-18T14:45:25;10.03;;;1.47;;
71963;SDS011;59834;52.124;5.422;2023-09-18T14:47:51;3.65;;;0.68;;
71963;SDS011;59834;52.124;5.422;2023-09-18T14:50:18;2.30;;;0.57;;
71963;SDS011;59834;52.124;5.422;2023-09-18T14:55:39;7.25;;;0.88;;
71963;SDS011;59834;52.124;5.422;2023-09-18T15:01:02;1.70;;;0.50;;
71963;SDS011;59834;52.124;5.422;2023-09-18T15:06:08;3.40;;;0.70;;
71963;SDS011;59834;52.124;5.422;2023-09-18T15:08:35;2.80;;;0.80;;
71963;SDS011;59834;52.124;5.422;2023-09-18T15:11:02;2.40;;;0.70;;
71963;SDS011;59834;52.124;5.422;2023-09-18T15:13:30;3.80;;;0.93;;
71963;SDS011;59834;52.124;5.422;2023-09-18T15:15:57;4.72;;;1.00;;
71963;SDS011;59834;52.124;5.422;2023-09-18T15:18:25;3.30;;;1.00;;
71963;SDS011;59834;52.124;5.422;2023-09-18T15:20:52;1.70;;;0.40;;
71963;SDS011;59834;52.124;5.422;2023-09-18T15:23:23;2.07;;;0.37;;
71963;SDS011;59834;52.124;5.422;2023-09-18T15:25:53;1.45;;;0.30;;
71963;SDS011;59834;52.124;5.422;2023-09-18T15:28:20;1.42;;;0.30;;
71963;SDS011;59834;52.124;5.422;2023-09-18T15:30:47;0.85;;;0.30;;
71963;SDS011;59834;52.124;5.422;2023-09-18T15:33:16;0.95;;;0.20;;
71963;SDS011;59834;52.124;5.422;2023-09-18T15:35:49;1.83;;;0.30;;
71963;SDS011;59834;52.124;5.422;2023-09-18T15:41:07;2.05;;;0.30;;
71963;SDS011;59834;52.124;5.422;2023-09-18T15:43:34;0.80;;;0.30;;
71963;SDS011;59834;52.124;5.422;2023-09-18T15:46:02;1.15;;;0.20;;
71963;SDS011;59834;52.124;5.422;2023-09-18T15:48:29;2.43;;;0.20;;
71963;SDS011;59834;52.124;5.422;2023-09-18T15:50:56;2.75;;;0.20;;
71963;SDS011;59834;52.124;5.422;2023-09-18T15:53:23;3.50;;;0.40;;
71963;SDS011;59834;52.124;5.422;2023-09-18T15:55:49;0.52;;;0.10;;
71963;SDS011;59834;52.124;5.422;2023-09-18T15:58:16;0.95;;;0.25;;
71963;SDS011;59834;52.124;5.422;2023-09-18T16:00:44;0.97;;;0.20;;
71963;SDS011;59834;52.124;5.422;2023-09-18T16:03:10;1.50;;;0.30;;
71963;SDS011;59834;52.124;5.422;2023-09-18T16:08:31;0.95;;;0.20;;
71963;SDS011;59834;52.124;5.422;2023-09-18T16:10:59;1.00;;;0.30;;
71963;SDS011;59834;52.124;5.422;2023-09-18T16:13:26;1.20;;;0.30;;
71963;SDS011;59834;52.124;5.422;2023-09-18T16:15:52;6.32;;;0.40;;
71963;SDS011;59834;52.124;5.422;2023-09-18T16:18:19;0.98;;;0.25;;